This is the latest recevied weather packets stored in our database for station/object OK1TOM-6. If no packets are shown the sender has not sent any weather packets the latest 10 day(s).
| Time | Temp. | Humidity | Pressure | Rain* | Wind** | Luminosity | Snow |
|---|---|---|---|---|---|---|---|
| 1778088954 | 14.44° C | 74% | 1007.6 hPa | 0 mm | - | - | - |
| 1778088351 | 14.44° C | 73% | 1007.7 hPa | 0 mm | - | - | - |
| 1778087747 | 15° C | 72% | 1007.6 hPa | 0 mm | - | - | - |
| 1778087144 | 15.56° C | 70% | 1007.6 hPa | 0 mm | - | - | - |
| 1778086541 | 15.56° C | 69% | 1007.6 hPa | 0 mm | - | - | - |
| 1778085937 | 15.56° C | 68% | 1007.6 hPa | 0 mm | - | - | - |
| 1778085334 | 15.56° C | 68% | 1007.7 hPa | 0 mm | - | - | - |
| 1778084730 | 15.56° C | 67% | 1007.8 hPa | 0 mm | - | - | - |
| 1778084127 | 16.11° C | 67% | 1007.8 hPa | 0 mm | - | - | - |
| 1778083523 | 16.67° C | 64% | 1007.7 hPa | 0 mm | - | - | - |
| 1778082920 | 16.67° C | 64% | 1007.8 hPa | 0 mm | - | - | - |
| 1778082316 | 16.67° C | 66% | 1008 hPa | 0 mm | - | - | - |
| 1778081773 | 16.67° C | 64% | 1008.2 hPa | 0 mm | - | - | - |
| 1778081170 | 16.67° C | 64% | 1008.2 hPa | 0 mm | - | - | - |
| 1778080566 | 16.11° C | 63% | 1008.3 hPa | 0 mm | - | - | - |
| 1778079963 | 16.67° C | 64% | 1008.3 hPa | 0 mm | - | - | - |
| 1778079359 | 16.67° C | 64% | 1008.3 hPa | 0 mm | - | - | - |
| 1778078756 | 16.67° C | 63% | 1008.3 hPa | 0 mm | - | - | - |
| 1778078153 | 16.11° C | 63% | 1008.4 hPa | 0 mm | - | - | - |
| 1778077549 | 16.67° C | 64% | 1008.4 hPa | 0 mm | - | - | - |
| 1778076946 | 16.67° C | 62% | 1008.4 hPa | 0 mm | - | - | - |
| 1778076342 | 16.67° C | 60% | 1008.5 hPa | 0 mm | - | - | - |
| 1778075739 | 17.22° C | 58% | 1008.5 hPa | 0 mm | - | - | - |
| 1778075135 | 17.22° C | 59% | 1008.4 hPa | 0 mm | - | - | - |
| 1778074532 | 16.67° C | 60% | 1008.5 hPa | 0 mm | - | - | - |
* Rain latest hour (hover to see other rain measurements)
** Current wind speed in m/s (hover to see current wind gust speed)